sensor_id;sensor_type;location;lat;lon;timestamp;P1;durP1;ratioP1;P2;durP2;ratioP2
53775;SDS011;44276;49.534;6.378;2022-12-10T15:04:05;22.00;;;11.32;;
53775;SDS011;44276;49.534;6.378;2022-12-10T15:09:20;23.55;;;9.73;;
53775;SDS011;44276;49.534;6.378;2022-12-10T15:11:55;24.70;;;10.50;;
53775;SDS011;44276;49.534;6.378;2022-12-10T15:14:27;17.95;;;10.13;;
53775;SDS011;44276;49.534;6.378;2022-12-10T15:16:57;22.25;;;11.60;;
53775;SDS011;44276;49.534;6.378;2022-12-10T15:19:32;19.15;;;9.75;;
53775;SDS011;44276;49.534;6.378;2022-12-10T15:22:04;33.08;;;11.20;;
53775;SDS011;44276;49.534;6.378;2022-12-10T15:24:48;28.63;;;11.23;;
53775;SDS011;44276;49.534;6.378;2022-12-10T15:27:18;22.30;;;10.82;;
53775;SDS011;44276;49.534;6.378;2022-12-10T15:29:51;26.75;;;11.20;;
53775;SDS011;44276;49.534;6.378;2022-12-10T15:32:21;29.33;;;11.27;;
53775;SDS011;44276;49.534;6.378;2022-12-10T15:34:55;30.70;;;12.98;;
53775;SDS011;44276;49.534;6.378;2022-12-10T15:37:31;31.05;;;13.30;;
53775;SDS011;44276;49.534;6.378;2022-12-10T15:40:07;34.42;;;13.90;;
53775;SDS011;44276;49.534;6.378;2022-12-10T15:42:55;29.13;;;13.82;;
53775;SDS011;44276;49.534;6.378;2022-12-10T15:45:38;26.52;;;11.23;;
53775;SDS011;44276;49.534;6.378;2022-12-10T15:48:10;26.40;;;12.43;;
53775;SDS011;44276;49.534;6.378;2022-12-10T15:50:42;36.05;;;13.20;;
53775;SDS011;44276;49.534;6.378;2022-12-10T15:53:13;29.45;;;12.60;;
53775;SDS011;44276;49.534;6.378;2022-12-10T15:55:49;28.00;;;11.25;;
53775;SDS011;44276;49.534;6.378;2022-12-10T15:58:17;46.47;;;18.92;;
53775;SDS011;44276;49.534;6.378;2022-12-10T16:00:45;34.95;;;14.80;;
53775;SDS011;44276;49.534;6.378;2022-12-10T16:03:14;30.08;;;15.25;;
53775;SDS011;44276;49.534;6.378;2022-12-10T16:05:46;26.33;;;13.27;;
53775;SDS011;44276;49.534;6.378;2022-12-10T16:08:17;22.73;;;9.65;;
53775;SDS011;44276;49.534;6.378;2022-12-10T16:10:48;33.28;;;10.18;;
53775;SDS011;44276;49.534;6.378;2022-12-10T16:13:19;25.58;;;11.27;;
53775;SDS011;44276;49.534;6.378;2022-12-10T16:15:52;27.10;;;13.13;;
53775;SDS011;44276;49.534;6.378;2022-12-10T16:18:24;30.05;;;12.20;;
53775;SDS011;44276;49.534;6.378;2022-12-10T16:21:00;30.38;;;12.82;;
53775;SDS011;44276;49.534;6.378;2022-12-10T16:23:30;23.95;;;11.95;;
53775;SDS011;44276;49.534;6.378;2022-12-10T16:26:04;33.03;;;14.38;;
53775;SDS011;44276;49.534;6.378;2022-12-10T16:28:42;38.53;;;16.70;;
53775;SDS011;44276;49.534;6.378;2022-12-10T16:31:14;27.67;;;12.73;;
53775;SDS011;44276;49.534;6.378;2022-12-10T16:33:47;25.73;;;12.23;;
53775;SDS011;44276;49.534;6.378;2022-12-10T16:36:20;25.42;;;13.10;;
53775;SDS011;44276;49.534;6.378;2022-12-10T16:38:49;29.52;;;12.73;;
53775;SDS011;44276;49.534;6.378;2022-12-10T16:41:18;28.27;;;13.32;;
53775;SDS011;44276;49.534;6.378;2022-12-10T16:43:50;34.17;;;12.27;;
53775;SDS011;44276;49.534;6.378;2022-12-10T16:46:20;27.27;;;12.63;;
53775;SDS011;44276;49.534;6.378;2022-12-10T16:48:50;34.13;;;16.15;;
53775;SDS011;44276;49.534;6.378;2022-12-10T16:51:22;29.40;;;11.93;;
53775;SDS011;44276;49.534;6.378;2022-12-10T16:53:55;31.10;;;12.00;;
53775;SDS011;44276;49.534;6.378;2022-12-10T16:56:24;34.25;;;15.32;;
53775;SDS011;44276;49.534;6.378;2022-12-10T16:58:52;26.42;;;13.25;;
53775;SDS011;44276;49.534;6.378;2022-12-10T17:01:21;32.95;;;12.38;;
53775;SDS011;44276;49.534;6.378;2022-12-10T17:03:53;45.60;;;16.85;;
53775;SDS011;44276;49.534;6.378;2022-12-10T17:06:24;35.50;;;14.80;;
53775;SDS011;44276;49.534;6.378;2022-12-10T17:08:53;32.45;;;13.18;;
53775;SDS011;44276;49.534;6.378;2022-12-10T17:11:22;31.52;;;11.27;;
53775;SDS011;44276;49.534;6.378;2022-12-10T17:14:20;37.60;;;14.82;;
53775;SDS011;44276;49.534;6.378;2022-12-10T17:16:52;28.70;;;14.75;;
53775;SDS011;44276;49.534;6.378;2022-12-10T17:19:23;37.90;;;15.05;;
53775;SDS011;44276;49.534;6.378;2022-12-10T17:21:55;40.67;;;13.70;;
53775;SDS011;44276;49.534;6.378;2022-12-10T17:24:24;39.83;;;14.88;;
53775;SDS011;44276;49.534;6.378;2022-12-10T17:26:52;40.00;;;15.60;;
53775;SDS011;44276;49.534;6.378;2022-12-10T17:29:26;51.58;;;17.10;;
53775;SDS011;44276;49.534;6.378;2022-12-10T17:31:58;42.40;;;16.15;;
53775;SDS011;44276;49.534;6.378;2022-12-10T17:34:51;38.25;;;13.73;;
53775;SDS011;44276;49.534;6.378;2022-12-10T17:37:21;41.72;;;16.23;;
53775;SDS011;44276;49.534;6.378;2022-12-10T17:39:50;38.65;;;14.57;;
53775;SDS011;44276;49.534;6.378;2022-12-10T17:42:19;43.78;;;16.77;;
53775;SDS011;44276;49.534;6.378;2022-12-10T17:44:47;44.28;;;18.52;;
53775;SDS011;44276;49.534;6.378;2022-12-10T17:47:19;38.22;;;15.85;;
53775;SDS011;44276;49.534;6.378;2022-12-10T17:49:50;38.92;;;17.05;;
53775;SDS011;44276;49.534;6.378;2022-12-10T17:52:19;41.47;;;16.42;;
53775;SDS011;44276;49.534;6.378;2022-12-10T17:54:49;38.63;;;14.70;;
53775;SDS011;44276;49.534;6.378;2022-12-10T17:57:18;44.70;;;16.58;;
53775;SDS011;44276;49.534;6.378;2022-12-10T17:59:51;49.88;;;17.35;;
53775;SDS011;44276;49.534;6.378;2022-12-10T18:02:20;45.63;;;16.65;;
53775;SDS011;44276;49.534;6.378;2022-12-10T18:04:49;35.47;;;15.80;;
53775;SDS011;44276;49.534;6.378;2022-12-10T18:07:18;44.65;;;17.23;;
53775;SDS011;44276;49.534;6.378;2022-12-10T18:09:48;49.13;;;19.02;;
53775;SDS011;44276;49.534;6.378;2022-12-10T18:12:16;42.42;;;16.35;;
53775;SDS011;44276;49.534;6.378;2022-12-10T18:14:44;50.42;;;17.50;;
53775;SDS011;44276;49.534;6.378;2022-12-10T18:17:13;41.92;;;17.05;;
53775;SDS011;44276;49.534;6.378;2022-12-10T18:19:43;38.58;;;15.93;;
53775;SDS011;44276;49.534;6.378;2022-12-10T18:22:18;49.65;;;18.45;;
53775;SDS011;44276;49.534;6.378;2022-12-10T18:24:48;58.42;;;19.33;;
53775;SDS011;44276;49.534;6.378;2022-12-10T18:27:16;53.90;;;18.10;;
53775;SDS011;44276;49.534;6.378;2022-12-10T18:29:46;51.90;;;18.33;;
53775;SDS011;44276;49.534;6.378;2022-12-10T18:32:14;53.85;;;20.50;;
53775;SDS011;44276;49.534;6.378;2022-12-10T18:34:42;51.13;;;20.13;;
53775;SDS011;44276;49.534;6.378;2022-12-10T18:37:11;56.90;;;17.95;;
53775;SDS011;44276;49.534;6.378;2022-12-10T18:39:39;63.70;;;20.02;;
53775;SDS011;44276;49.534;6.378;2022-12-10T18:42:08;57.67;;;26.05;;
53775;SDS011;44276;49.534;6.378;2022-12-10T18:44:37;56.92;;;21.88;;
53775;SDS011;44276;49.534;6.378;2022-12-10T18:47:08;74.63;;;26.08;;
53775;SDS011;44276;49.534;6.378;2022-12-10T18:49:38;275.02;;;112.93;;
53775;SDS011;44276;49.534;6.378;2022-12-10T18:52:06;312.58;;;133.25;;
53775;SDS011;44276;49.534;6.378;2022-12-10T18:54:35;129.90;;;64.85;;
53775;SDS011;44276;49.534;6.378;2022-12-10T18:57:03;63.10;;;33.83;;
53775;SDS011;44276;49.534;6.378;2022-12-10T18:59:53;82.88;;;32.85;;
53775;SDS011;44276;49.534;6.378;2022-12-10T19:02:22;82.55;;;29.65;;
53775;SDS011;44276;49.534;6.378;2022-12-10T19:04:50;66.70;;;25.48;;
53775;SDS011;44276;49.534;6.378;2022-12-10T19:07:18;97.82;;;43.72;;
53775;SDS011;44276;49.534;6.378;2022-12-10T19:09:47;68.65;;;28.70;;
53775;SDS011;44276;49.534;6.378;2022-12-10T19:12:17;51.75;;;21.17;;
53775;SDS011;44276;49.534;6.378;2022-12-10T19:14:46;58.03;;;22.75;;
53775;SDS011;44276;49.534;6.378;2022-12-10T19:17:15;55.42;;;17.98;;
53775;SDS011;44276;49.534;6.378;2022-12-10T19:19:43;58.00;;;22.42;;
53775;SDS011;44276;49.534;6.378;2022-12-10T19:22:12;50.20;;;18.83;;
53775;SDS011;44276;49.534;6.378;2022-12-10T19:24:40;57.08;;;19.95;;
53775;SDS011;44276;49.534;6.378;2022-12-10T19:27:09;56.38;;;18.83;;
53775;SDS011;44276;49.534;6.378;2022-12-10T19:29:38;68.72;;;21.85;;
53775;SDS011;44276;49.534;6.378;2022-12-10T19:32:06;68.20;;;23.95;;
53775;SDS011;44276;49.534;6.378;2022-12-10T19:34:36;64.28;;;23.25;;
53775;SDS011;44276;49.534;6.378;2022-12-10T19:37:08;67.38;;;21.17;;
53775;SDS011;44276;49.534;6.378;2022-12-10T19:39:37;57.65;;;21.40;;
53775;SDS011;44276;49.534;6.378;2022-12-10T19:42:05;67.53;;;22.52;;
53775;SDS011;44276;49.534;6.378;2022-12-10T19:44:33;72.35;;;25.80;;
53775;SDS011;44276;49.534;6.378;2022-12-10T19:47:02;66.72;;;24.15;;
53775;SDS011;44276;49.534;6.378;2022-12-10T19:49:30;65.10;;;23.10;;
53775;SDS011;44276;49.534;6.378;2022-12-10T19:52:00;69.60;;;33.33;;
53775;SDS011;44276;49.534;6.378;2022-12-10T19:54:28;67.18;;;29.15;;
53775;SDS011;44276;49.534;6.378;2022-12-10T19:56:57;65.50;;;28.17;;
53775;SDS011;44276;49.534;6.378;2022-12-10T19:59:25;54.10;;;22.10;;
53775;SDS011;44276;49.534;6.378;2022-12-10T20:02:01;69.95;;;22.58;;
53775;SDS011;44276;49.534;6.378;2022-12-10T20:04:30;68.40;;;28.67;;
53775;SDS011;44276;49.534;6.378;2022-12-10T20:06:59;60.10;;;23.08;;
53775;SDS011;44276;49.534;6.378;2022-12-10T20:09:28;63.28;;;26.42;;
53775;SDS011;44276;49.534;6.378;2022-12-10T20:11:59;66.20;;;22.42;;
53775;SDS011;44276;49.534;6.378;2022-12-10T20:14:27;60.63;;;21.02;;
53775;SDS011;44276;49.534;6.378;2022-12-10T20:16:55;62.35;;;22.13;;
53775;SDS011;44276;49.534;6.378;2022-12-10T20:19:24;64.97;;;23.60;;
53775;SDS011;44276;49.534;6.378;2022-12-10T20:21:52;64.97;;;23.08;;
53775;SDS011;44276;49.534;6.378;2022-12-10T20:24:22;76.85;;;30.08;;
53775;SDS011;44276;49.534;6.378;2022-12-10T20:26:50;64.03;;;22.70;;
53775;SDS011;44276;49.534;6.378;2022-12-10T20:29:20;68.70;;;24.40;;
53775;SDS011;44276;49.534;6.378;2022-12-10T20:31:51;63.78;;;26.65;;
53775;SDS011;44276;49.534;6.378;2022-12-10T20:34:21;80.13;;;26.88;;
53775;SDS011;44276;49.534;6.378;2022-12-10T20:36:51;79.57;;;24.85;;
53775;SDS011;44276;49.534;6.378;2022-12-10T20:39:20;74.00;;;25.33;;
53775;SDS011;44276;49.534;6.378;2022-12-10T20:41:54;80.90;;;29.40;;
53775;SDS011;44276;49.534;6.378;2022-12-10T20:44:25;68.75;;;25.17;;
53775;SDS011;44276;49.534;6.378;2022-12-10T20:46:54;70.47;;;24.13;;
53775;SDS011;44276;49.534;6.378;2022-12-10T20:49:24;69.63;;;24.98;;
53775;SDS011;44276;49.534;6.378;2022-12-10T20:51:54;60.13;;;21.00;;
53775;SDS011;44276;49.534;6.378;2022-12-10T20:54:24;59.72;;;19.50;;
53775;SDS011;44276;49.534;6.378;2022-12-10T20:56:53;58.40;;;22.08;;
53775;SDS011;44276;49.534;6.378;2022-12-10T20:59:24;53.88;;;21.08;;
53775;SDS011;44276;49.534;6.378;2022-12-10T21:01:59;49.00;;;20.38;;
53775;SDS011;44276;49.534;6.378;2022-12-10T21:04:28;52.67;;;18.63;;
53775;SDS011;44276;49.534;6.378;2022-12-10T21:06:57;64.55;;;21.45;;
53775;SDS011;44276;49.534;6.378;2022-12-10T21:09:27;63.47;;;22.13;;
53775;SDS011;44276;49.534;6.378;2022-12-10T21:11:55;78.30;;;22.75;;
53775;SDS011;44276;49.534;6.378;2022-12-10T21:14:23;59.67;;;21.90;;
53775;SDS011;44276;49.534;6.378;2022-12-10T21:17:12;54.42;;;20.80;;
53775;SDS011;44276;49.534;6.378;2022-12-10T21:19:40;64.70;;;21.95;;
53775;SDS011;44276;49.534;6.378;2022-12-10T21:22:10;52.17;;;19.27;;
53775;SDS011;44276;49.534;6.378;2022-12-10T21:24:40;58.78;;;21.08;;
53775;SDS011;44276;49.534;6.378;2022-12-10T21:27:08;67.38;;;21.52;;
53775;SDS011;44276;49.534;6.378;2022-12-10T21:29:38;66.85;;;23.70;;
53775;SDS011;44276;49.534;6.378;2022-12-10T21:32:10;68.43;;;23.00;;
53775;SDS011;44276;49.534;6.378;2022-12-10T21:34:40;63.65;;;22.38;;
53775;SDS011;44276;49.534;6.378;2022-12-10T21:37:08;59.65;;;23.25;;
53775;SDS011;44276;49.534;6.378;2022-12-10T21:39:38;78.43;;;24.13;;
53775;SDS011;44276;49.534;6.378;2022-12-10T21:42:10;64.05;;;22.42;;
53775;SDS011;44276;49.534;6.378;2022-12-10T21:44:57;68.47;;;25.35;;
53775;SDS011;44276;49.534;6.378;2022-12-10T21:47:27;57.28;;;22.20;;
53775;SDS011;44276;49.534;6.378;2022-12-10T21:49:56;60.35;;;22.77;;
53775;SDS011;44276;49.534;6.378;2022-12-10T21:52:24;62.92;;;21.50;;
53775;SDS011;44276;49.534;6.378;2022-12-10T21:54:52;78.85;;;24.65;;
53775;SDS011;44276;49.534;6.378;2022-12-10T21:57:22;61.15;;;23.42;;
53775;SDS011;44276;49.534;6.378;2022-12-10T21:59:50;66.20;;;21.10;;
53775;SDS011;44276;49.534;6.378;2022-12-10T22:02:19;78.45;;;24.10;;
53775;SDS011;44276;49.534;6.378;2022-12-10T22:04:47;61.15;;;22.77;;
53775;SDS011;44276;49.534;6.378;2022-12-10T22:07:15;52.80;;;20.63;;
53775;SDS011;44276;49.534;6.378;2022-12-10T22:09:43;55.53;;;21.13;;
53775;SDS011;44276;49.534;6.378;2022-12-10T22:12:12;60.17;;;24.42;;
53775;SDS011;44276;49.534;6.378;2022-12-10T22:14:44;61.78;;;21.08;;
53775;SDS011;44276;49.534;6.378;2022-12-10T22:17:12;63.25;;;24.13;;
53775;SDS011;44276;49.534;6.378;2022-12-10T22:19:40;75.80;;;25.08;;
53775;SDS011;44276;49.534;6.378;2022-12-10T22:22:10;55.67;;;20.30;;
53775;SDS011;44276;49.534;6.378;2022-12-10T22:24:39;76.22;;;22.20;;
53775;SDS011;44276;49.534;6.378;2022-12-10T22:27:07;46.67;;;20.13;;
53775;SDS011;44276;49.534;6.378;2022-12-10T22:29:35;51.40;;;21.60;;
53775;SDS011;44276;49.534;6.378;2022-12-10T22:32:05;62.92;;;21.42;;
53775;SDS011;44276;49.534;6.378;2022-12-10T22:34:33;63.60;;;21.63;;
53775;SDS011;44276;49.534;6.378;2022-12-10T22:37:10;57.85;;;21.05;;
53775;SDS011;44276;49.534;6.378;2022-12-10T22:39:38;66.95;;;22.98;;
53775;SDS011;44276;49.534;6.378;2022-12-10T22:42:07;61.90;;;21.23;;
53775;SDS011;44276;49.534;6.378;2022-12-10T22:44:35;58.17;;;22.02;;
53775;SDS011;44276;49.534;6.378;2022-12-10T22:47:03;55.22;;;20.20;;
53775;SDS011;44276;49.534;6.378;2022-12-10T22:49:33;54.90;;;19.25;;
53775;SDS011;44276;49.534;6.378;2022-12-10T22:52:04;56.03;;;21.10;;
53775;SDS011;44276;49.534;6.378;2022-12-10T22:54:33;69.70;;;23.02;;
53775;SDS011;44276;49.534;6.378;2022-12-10T22:57:01;67.07;;;23.05;;
53775;SDS011;44276;49.534;6.378;2022-12-10T22:59:29;67.53;;;25.40;;
53775;SDS011;44276;49.534;6.378;2022-12-10T23:01:57;51.55;;;19.13;;
53775;SDS011;44276;49.534;6.378;2022-12-10T23:04:27;57.55;;;18.88;;
53775;SDS011;44276;49.534;6.378;2022-12-10T23:06:56;68.55;;;23.65;;
53775;SDS011;44276;49.534;6.378;2022-12-10T23:09:24;57.60;;;19.38;;
53775;SDS011;44276;49.534;6.378;2022-12-10T23:11:52;57.78;;;18.77;;
53775;SDS011;44276;49.534;6.378;2022-12-10T23:14:38;72.43;;;22.27;;
53775;SDS011;44276;49.534;6.378;2022-12-10T23:17:06;66.72;;;21.35;;
53775;SDS011;44276;49.534;6.378;2022-12-10T23:19:36;69.05;;;25.33;;
53775;SDS011;44276;49.534;6.378;2022-12-10T23:22:04;75.03;;;24.50;;
53775;SDS011;44276;49.534;6.378;2022-12-10T23:24:33;56.92;;;21.75;;
53775;SDS011;44276;49.534;6.378;2022-12-10T23:27:01;69.85;;;21.95;;
53775;SDS011;44276;49.534;6.378;2022-12-10T23:29:30;58.65;;;22.25;;
53775;SDS011;44276;49.534;6.378;2022-12-10T23:31:58;63.42;;;22.35;;
53775;SDS011;44276;49.534;6.378;2022-12-10T23:34:26;54.05;;;20.30;;
53775;SDS011;44276;49.534;6.378;2022-12-10T23:36:56;60.60;;;20.98;;
53775;SDS011;44276;49.534;6.378;2022-12-10T23:39:24;64.18;;;22.98;;
53775;SDS011;44276;49.534;6.378;2022-12-10T23:41:52;71.07;;;23.38;;
53775;SDS011;44276;49.534;6.378;2022-12-10T23:44:20;73.55;;;24.50;;
53775;SDS011;44276;49.534;6.378;2022-12-10T23:46:49;75.68;;;24.45;;
53775;SDS011;44276;49.534;6.378;2022-12-10T23:49:18;79.93;;;26.98;;
53775;SDS011;44276;49.534;6.378;2022-12-10T23:51:46;61.75;;;24.63;;
53775;SDS011;44276;49.534;6.378;2022-12-10T23:54:15;77.85;;;25.10;;
53775;SDS011;44276;49.534;6.378;2022-12-10T23:56:43;59.25;;;21.30;;
53775;SDS011;44276;49.534;6.378;2022-12-10T23:59:12;74.20;;;26.33;;
